Time;durP1;ratioP1;P1;durP2;ratioP2;P2;SDS_P1;SDS_P2;PMS_P1;PMS_P2;Temp;Humidity;BMP_temperature;BMP_pressure;BME280_temperature;BME280_humidity;BME280_pressure;Samples;Min_cycle;Max_cycle;Signal;HPM_P1;HPM_P2
2022/03/17 00:00:19;;;;;;;4.70;2.47;;;;;;;;;;6095920;23;20025;-43
2022/03/17 00:02:44;;;;;;;5.13;2.17;;;;;;;;;;6095234;23;20219;-43
2022/03/17 00:05:10;;;;;;;6.75;3.90;;;;;;;;;;6096594;23;20435;-44
2022/03/17 00:07:40;;;;;;;11.27;2.22;;;;;;;;;;6094048;23;20026;-44
2022/03/17 00:10:06;;;;;;;4.40;2.55;;;;;;;;;;6096129;23;20022;-44
2022/03/17 00:12:31;;;;;;;4.60;2.85;;;;;;;;;;6094313;23;20046;-44
2022/03/17 00:14:57;;;;;;;11.07;2.72;;;;;;;;;;6096236;23;20279;-44
2022/03/17 00:17:22;;;;;;;4.43;2.33;;;;;;;;;;6095082;23;20010;-45
2022/03/17 00:19:47;;;;;;;8.32;3.28;;;;;;;;;;6095452;23;20026;-45
2022/03/17 00:22:15;;;;;;;6.25;2.55;;;;;;;;;;6094743;23;20026;-44
2022/03/17 00:24:41;;;;;;;5.82;2.53;;;;;;;;;;6095804;23;20002;-45
2022/03/17 00:27:08;;;;;;;6.97;2.33;;;;;;;;;;6095984;23;20025;-45
2022/03/17 00:29:34;;;;;;;5.88;2.80;;;;;;;;;;6093811;23;20065;-43
2022/03/17 00:31:59;;;;;;;8.70;2.95;;;;;;;;;;6095636;23;20006;-47
2022/03/17 00:34:25;;;;;;;4.75;2.75;;;;;;;;;;6094236;23;20978;-44
2022/03/17 00:36:50;;;;;;;4.20;2.58;;;;;;;;;;6095724;23;20021;-43
2022/03/17 00:39:15;;;;;;;5.32;2.65;;;;;;;;;;6093484;23;20018;-44
2022/03/17 00:41:41;;;;;;;6.85;3.40;;;;;;;;;;6096371;23;20014;-42
2022/03/17 00:44:06;;;;;;;7.60;3.17;;;;;;;;;;6095734;23;20010;-44
2022/03/17 00:46:32;;;;;;;8.43;3.15;;;;;;;;;;6094021;23;20026;-44
2022/03/17 00:48:57;;;;;;;7.45;3.15;;;;;;;;;;6095161;23;20018;-43
2022/03/17 00:51:22;;;;;;;8.70;3.00;;;;;;;;;;6093166;23;20424;-44
2022/03/17 00:53:47;;;;;;;8.13;4.03;;;;;;;;;;6096147;23;20765;-44
2022/03/17 00:56:13;;;;;;;12.63;2.75;;;;;;;;;;6092263;23;20011;-43
2022/03/17 00:58:38;;;;;;;5.22;2.67;;;;;;;;;;6095067;23;20023;-43
2022/03/17 01:01:03;;;;;;;8.48;2.55;;;;;;;;;;6093852;23;20018;-42
2022/03/17 01:03:29;;;;;;;7.75;3.78;;;;;;;;;;6096648;23;20018;-43
2022/03/17 01:05:54;;;;;;;8.93;3.47;;;;;;;;;;6094948;23;20026;-43
2022/03/17 01:08:19;;;;;;;6.20;2.80;;;;;;;;;;6093817;23;20018;-43
2022/03/17 01:10:45;;;;;;;8.60;4.07;;;;;;;;;;6093915;23;20025;-44
2022/03/17 01:13:10;;;;;;;6.70;2.63;;;;;;;;;;6096162;23;20046;-44
2022/03/17 01:15:35;;;;;;;9.25;2.92;;;;;;;;;;6093680;23;20011;-44
2022/03/17 01:18:02;;;;;;;10.30;3.03;;;;;;;;;;6097098;23;20034;-46
2022/03/17 01:20:29;;;;;;;7.43;2.92;;;;;;;;;;6093753;23;20018;-44
2022/03/17 01:22:54;;;;;;;5.65;3.55;;;;;;;;;;6095511;23;20064;-43
2022/03/17 01:25:19;;;;;;;5.97;2.88;;;;;;;;;;6093377;23;20018;-42
2022/03/17 01:27:45;;;;;;;13.45;2.92;;;;;;;;;;6096042;23;20014;-43
2022/03/17 01:30:10;;;;;;;6.82;3.20;;;;;;;;;;6095207;23;20046;-45
2022/03/17 01:32:38;;;;;;;5.40;3.00;;;;;;;;;;6095154;23;20017;-43
2022/03/17 01:35:05;;;;;;;6.47;3.30;;;;;;;;;;6094957;23;20021;-43
2022/03/17 01:37:30;;;;;;;6.80;2.88;;;;;;;;;;6095812;23;21009;-44
2022/03/17 01:39:55;;;;;;;9.75;3.60;;;;;;;;;;6093792;23;20023;-44
2022/03/17 01:42:21;;;;;;;10.15;3.03;;;;;;;;;;6097585;23;20557;-44
2022/03/17 01:44:46;;;;;;;11.80;2.83;;;;;;;;;;6093809;23;20451;-43
2022/03/17 01:47:27;;;;;;;8.30;3.33;;;;;;;;;;6097036;23;20327;-44
2022/03/17 01:49:53;;;;;;;7.63;3.45;;;;;;;;;;6096604;23;20332;-46
2022/03/17 01:52:18;;;;;;;5.57;2.63;;;;;;;;;;6095033;23;20019;-47
2022/03/17 01:54:44;;;;;;;7.00;2.90;;;;;;;;;;6098015;23;20014;-45
2022/03/17 01:57:09;;;;;;;8.85;3.10;;;;;;;;;;6097890;23;20090;-44
2022/03/17 01:59:36;;;;;;;5.03;2.40;;;;;;;;;;6096359;23;20011;-45
2022/03/17 02:02:03;;;;;;;13.52;2.33;;;;;;;;;;6097620;23;20101;-43
2022/03/17 02:04:28;;;;;;;7.60;3.05;;;;;;;;;;6095383;23;20038;-44
2022/03/17 02:06:54;;;;;;;5.70;2.40;;;;;;;;;;6097329;23;20014;-44
2022/03/17 02:09:19;;;;;;;37.15;5.07;;;;;;;;;;6096118;23;20019;-44
2022/03/17 02:14:34;;;;;;;5.43;2.35;;;;;;;;;;6097267;23;20132;-43
2022/03/17 02:16:59;;;;;;;5.40;2.95;;;;;;;;;;6096821;23;20030;-44
2022/03/17 02:19:24;;;;;;;9.07;2.63;;;;;;;;;;6096357;23;20014;-43
2022/03/17 02:21:49;;;;;;;4.35;2.83;;;;;;;;;;6094871;23;20054;-44
2022/03/17 02:27:00;;;;;;;9.65;2.55;;;;;;;;;;6095706;23;20038;-45
2022/03/17 02:29:26;;;;;;;6.45;3.15;;;;;;;;;;6094911;23;20118;-45
2022/03/17 02:31:51;;;;;;;9.02;3.33;;;;;;;;;;6095822;23;20014;-43
2022/03/17 02:34:17;;;;;;;8.95;3.00;;;;;;;;;;6096489;23;20015;-43
2022/03/17 02:36:49;;;;;;;7.63;3.17;;;;;;;;;;6095936;23;20021;-44
2022/03/17 02:39:15;;;;;;;6.95;2.70;;;;;;;;;;6096148;23;20038;-44
2022/03/17 02:41:41;;;;;;;8.05;2.92;;;;;;;;;;6096977;23;20058;-45
2022/03/17 02:44:06;;;;;;;7.45;3.58;;;;;;;;;;6097831;23;20527;-44
2022/03/17 02:46:31;;;;;;;8.95;3.20;;;;;;;;;;6093833;23;20022;-43
2022/03/17 02:48:57;;;;;;;11.45;3.70;;;;;;;;;;6093605;23;20010;-45
2022/03/17 02:51:22;;;;;;;7.38;4.03;;;;;;;;;;6097104;23;20041;-42
2022/03/17 02:53:48;;;;;;;9.88;3.83;;;;;;;;;;6097878;23;20011;-42
2022/03/17 02:56:13;;;;;;;11.95;4.43;;;;;;;;;;6096458;23;20039;-49
2022/03/17 02:58:39;;;;;;;8.88;3.72;;;;;;;;;;6094889;23;20085;-43
2022/03/17 03:01:04;;;;;;;8.48;3.30;;;;;;;;;;6088327;23;20041;-45
2022/03/17 03:03:30;;;;;;;9.05;4.15;;;;;;;;;;6097330;23;20093;-43
2022/03/17 03:05:55;;;;;;;7.78;3.70;;;;;;;;;;6095508;23;20350;-42
2022/03/17 03:08:21;;;;;;;22.73;6.65;;;;;;;;;;6091295;23;20604;-45
2022/03/17 03:10:47;;;;;;;9.65;3.25;;;;;;;;;;6094283;23;20017;-42
2022/03/17 03:13:12;;;;;;;6.70;3.05;;;;;;;;;;6099570;23;20010;-43
2022/03/17 03:15:37;;;;;;;7.85;3.55;;;;;;;;;;6093725;23;20018;-43
2022/03/17 03:18:03;;;;;;;7.50;3.65;;;;;;;;;;6094552;23;20117;-43
2022/03/17 03:20:28;;;;;;;6.93;3.42;;;;;;;;;;6095954;23;20018;-45
2022/03/17 03:22:53;;;;;;;10.95;3.60;;;;;;;;;;6092379;23;20569;-43
2022/03/17 03:25:19;;;;;;;6.25;2.90;;;;;;;;;;6095791;23;20038;-44
2022/03/17 03:27:44;;;;;;;12.85;3.78;;;;;;;;;;6095636;23;20074;-45
2022/03/17 03:30:14;;;;;;;10.43;2.88;;;;;;;;;;6095484;23;20019;-44
2022/03/17 03:32:39;;;;;;;7.75;3.15;;;;;;;;;;6096372;23;20091;-44
2022/03/17 03:37:50;;;;;;;4.28;2.55;;;;;;;;;;6093139;23;20021;-43
2022/03/17 03:40:15;;;;;;;7.32;2.38;;;;;;;;;;6094218;23;20015;-43
2022/03/17 03:42:41;;;;;;;6.10;3.63;;;;;;;;;;6095828;23;20014;-42
2022/03/17 03:45:06;;;;;;;7.10;3.10;;;;;;;;;;6095279;23;20069;-45
2022/03/17 03:47:31;;;;;;;6.20;2.42;;;;;;;;;;6090430;23;20018;-42
2022/03/17 03:49:56;;;;;;;3.60;2.33;;;;;;;;;;6093144;23;20025;-43
2022/03/17 03:52:22;;;;;;;9.68;2.67;;;;;;;;;;6094881;23;20029;-45
2022/03/17 03:54:47;;;;;;;5.60;2.17;;;;;;;;;;6094623;23;20003;-44
2022/03/17 03:57:12;;;;;;;3.50;2.38;;;;;;;;;;6095422;23;20029;-45
2022/03/17 03:59:38;;;;;;;4.93;2.40;;;;;;;;;;6091915;23;20463;-43
2022/03/17 04:02:07;;;;;;;3.90;2.22;;;;;;;;;;6118718;23;20417;-45
2022/03/17 04:04:36;;;;;;;5.90;2.72;;;;;;;;;;6093595;23;20017;-44
2022/03/17 04:07:04;;;;;;;4.35;2.22;;;;;;;;;;6095938;23;20007;-44
2022/03/17 04:09:31;;;;;;;25.15;3.17;;;;;;;;;;6095472;23;20837;-43
2022/03/17 04:11:56;;;;;;;4.72;2.50;;;;;;;;;;6094445;23;20046;-43
2022/03/17 04:14:22;;;;;;;4.45;2.38;;;;;;;;;;6095936;23;20070;-45
2022/03/17 04:16:48;;;;;;;8.05;2.45;;;;;;;;;;6093971;23;20022;-43
2022/03/17 04:19:15;;;;;;;4.07;2.67;;;;;;;;;;6095301;23;20014;-45
2022/03/17 04:21:40;;;;;;;4.22;2.40;;;;;;;;;;6094079;23;20066;-43
2022/03/17 04:24:06;;;;;;;10.93;3.97;;;;;;;;;;6096046;23;20019;-45
2022/03/17 04:26:31;;;;;;;9.05;3.53;;;;;;;;;;6092749;23;20113;-42
2022/03/17 04:28:57;;;;;;;8.18;2.13;;;;;;;;;;6096250;23;20021;-43
2022/03/17 04:31:22;;;;;;;9.63;3.00;;;;;;;;;;6093272;23;20027;-43
2022/03/17 04:33:48;;;;;;;5.60;2.97;;;;;;;;;;6096074;23;20021;-43
2022/03/17 04:36:13;;;;;;;10.15;2.55;;;;;;;;;;6094074;23;20010;-44
2022/03/17 04:38:39;;;;;;;6.05;2.95;;;;;;;;;;6096267;23;20014;-43
2022/03/17 04:41:04;;;;;;;12.23;3.20;;;;;;;;;;6094396;23;20018;-44
2022/03/17 04:43:29;;;;;;;8.63;2.15;;;;;;;;;;6095858;23;20039;-42
2022/03/17 04:45:55;;;;;;;9.02;2.80;;;;;;;;;;6091594;23;20011;-44
2022/03/17 04:48:20;;;;;;;10.00;2.80;;;;;;;;;;6083459;23;20018;-44
2022/03/17 04:50:45;;;;;;;6.80;2.75;;;;;;;;;;6090922;23;20522;-48
2022/03/17 04:55:55;;;;;;;7.72;2.25;;;;;;;;;;6088984;23;20018;-43
2022/03/17 04:58:20;;;;;;;10.43;2.67;;;;;;;;;;6090281;23;20015;-44
2022/03/17 05:00:46;;;;;;;10.10;3.88;;;;;;;;;;6090327;23;20015;-46
2022/03/17 05:03:11;;;;;;;10.02;2.78;;;;;;;;;;6091477;23;20019;-44
2022/03/17 05:05:37;;;;;;;3.97;1.95;;;;;;;;;;6089603;23;20038;-44
2022/03/17 05:08:03;;;;;;;5.25;2.40;;;;;;;;;;6090496;23;20026;-42
2022/03/17 05:10:28;;;;;;;5.95;2.72;;;;;;;;;;6088651;23;20014;-43
2022/03/17 05:12:54;;;;;;;7.70;2.47;;;;;;;;;;6090072;23;20044;-42
2022/03/17 05:15:20;;;;;;;10.55;3.67;;;;;;;;;;6091358;23;20024;-43
2022/03/17 05:17:47;;;;;;;4.95;2.28;;;;;;;;;;6092525;23;20020;-47
2022/03/17 05:20:12;;;;;;;6.72;2.72;;;;;;;;;;6093199;23;20372;-43
2022/03/17 05:22:39;;;;;;;6.03;2.78;;;;;;;;;;6095081;23;20487;-43
2022/03/17 05:25:05;;;;;;;4.45;2.53;;;;;;;;;;6096989;23;20025;-43
2022/03/17 05:27:30;;;;;;;9.65;3.08;;;;;;;;;;6093991;23;20018;-44
2022/03/17 05:29:56;;;;;;;6.85;2.38;;;;;;;;;;6097666;23;20030;-44
2022/03/17 05:32:21;;;;;;;17.25;3.10;;;;;;;;;;6091585;23;20091;-43
2022/03/17 05:34:46;;;;;;;9.52;2.70;;;;;;;;;;6090384;23;20045;-45
2022/03/17 05:37:12;;;;;;;5.40;2.10;;;;;;;;;;6091652;23;20447;-45
2022/03/17 05:39:37;;;;;;;6.70;2.50;;;;;;;;;;6087201;23;20176;-45
2022/03/17 05:42:02;;;;;;;10.48;3.58;;;;;;;;;;6091668;23;20028;-44
2022/03/17 05:44:28;;;;;;;4.18;2.25;;;;;;;;;;6084060;23;20045;-43
2022/03/17 05:46:54;;;;;;;10.88;4.03;;;;;;;;;;6090831;23;20010;-44
2022/03/17 05:49:19;;;;;;;7.53;2.80;;;;;;;;;;6093755;23;20025;-44
2022/03/17 05:51:44;;;;;;;11.48;2.67;;;;;;;;;;6088989;23;20038;-43
2022/03/17 05:54:10;;;;;;;6.85;2.15;;;;;;;;;;6084107;23;20050;-43
2022/03/17 05:56:35;;;;;;;11.32;3.67;;;;;;;;;;6085594;23;20584;-42
2022/03/17 05:59:01;;;;;;;5.13;2.15;;;;;;;;;;6074186;23;20487;-42
2022/03/17 06:01:27;;;;;;;9.93;3.42;;;;;;;;;;6093771;23;20034;-43
2022/03/17 06:03:52;;;;;;;10.18;2.33;;;;;;;;;;6096357;23;20010;-43
2022/03/17 06:06:17;;;;;;;12.45;2.45;;;;;;;;;;6093987;23;20046;-43
2022/03/17 06:08:43;;;;;;;10.52;2.47;;;;;;;;;;6095231;23;20007;-45
2022/03/17 06:11:08;;;;;;;12.43;2.42;;;;;;;;;;6097107;23;20658;-43
2022/03/17 06:13:33;;;;;;;13.48;3.05;;;;;;;;;;6094619;23;20038;-43
2022/03/17 06:15:58;;;;;;;7.90;2.80;;;;;;;;;;6096723;23;20014;-43
2022/03/17 06:18:24;;;;;;;7.30;2.30;;;;;;;;;;6094667;23;20033;-44
2022/03/17 06:20:49;;;;;;;13.23;3.80;;;;;;;;;;6096285;23;20030;-45
2022/03/17 06:23:14;;;;;;;8.50;2.38;;;;;;;;;;6095089;23;20010;-43
2022/03/17 06:25:40;;;;;;;5.53;2.00;;;;;;;;;;6094930;23;20033;-43
2022/03/17 06:28:05;;;;;;;13.02;4.03;;;;;;;;;;6097193;23;20419;-45
2022/03/17 06:30:31;;;;;;;9.18;2.88;;;;;;;;;;6094117;23;20648;-44
2022/03/17 06:32:57;;;;;;;7.40;2.20;;;;;;;;;;6095768;23;20014;-42
2022/03/17 06:35:23;;;;;;;5.57;2.20;;;;;;;;;;6091782;23;20015;-43
2022/03/17 06:37:51;;;;;;;9.95;3.22;;;;;;;;;;6093619;23;20033;-44
2022/03/17 06:40:17;;;;;;;10.48;1.70;;;;;;;;;;6096485;23;20014;-46
2022/03/17 06:42:42;;;;;;;6.68;2.15;;;;;;;;;;6089431;23;20097;-43
2022/03/17 06:45:08;;;;;;;7.40;2.28;;;;;;;;;;6084313;23;20021;-43
2022/03/17 06:47:34;;;;;;;9.90;3.13;;;;;;;;;;6083584;23;20007;-44
2022/03/17 06:49:59;;;;;;;10.23;2.75;;;;;;;;;;6086922;23;20014;-43
2022/03/17 06:52:24;;;;;;;7.50;2.60;;;;;;;;;;6092645;23;20019;-44
2022/03/17 06:54:50;;;;;;;6.82;2.72;;;;;;;;;;6089965;23;20014;-43
2022/03/17 06:57:16;;;;;;;5.88;2.58;;;;;;;;;;6091789;23;20018;-44
2022/03/17 06:59:41;;;;;;;7.70;2.85;;;;;;;;;;6092900;23;20003;-44
2022/03/17 07:02:07;;;;;;;10.38;2.42;;;;;;;;;;6089809;23;20037;-46
2022/03/17 07:04:32;;;;;;;12.40;4.60;;;;;;;;;;6092721;23;20018;-43
2022/03/17 07:06:57;;;;;;;11.07;3.05;;;;;;;;;;6093786;23;20448;-44
2022/03/17 07:09:22;;;;;;;12.07;3.35;;;;;;;;;;6092468;23;20023;-45
2022/03/17 07:11:48;;;;;;;8.20;2.70;;;;;;;;;;6088195;23;20013;-45
2022/03/17 07:14:13;;;;;;;10.70;3.15;;;;;;;;;;6090989;23;20075;-44
2022/03/17 07:16:39;;;;;;;8.10;3.13;;;;;;;;;;6093304;23;20002;-44
2022/03/17 07:19:04;;;;;;;16.02;3.22;;;;;;;;;;6091534;23;20025;-43
2022/03/17 07:21:29;;;;;;;10.65;3.25;;;;;;;;;;6091313;23;20090;-43
2022/03/17 07:23:54;;;;;;;14.40;2.58;;;;;;;;;;6086517;23;20010;-44
2022/03/17 07:26:20;;;;;;;11.00;3.45;;;;;;;;;;6090752;23;20029;-43
2022/03/17 07:28:45;;;;;;;10.40;3.35;;;;;;;;;;6090636;23;20069;-44
2022/03/17 07:31:10;;;;;;;12.52;4.00;;;;;;;;;;6090650;23;20047;-44
2022/03/17 07:33:37;;;;;;;12.60;3.25;;;;;;;;;;6080620;23;20045;-44
2022/03/17 07:36:03;;;;;;;14.75;3.08;;;;;;;;;;6091248;23;20010;-43
2022/03/17 07:38:29;;;;;;;13.93;4.32;;;;;;;;;;6086182;23;20042;-44
2022/03/17 07:40:54;;;;;;;10.38;3.25;;;;;;;;;;6093120;23;20033;-43
2022/03/17 07:43:19;;;;;;;19.65;4.40;;;;;;;;;;6093114;23;20478;-45
2022/03/17 07:45:44;;;;;;;12.68;4.25;;;;;;;;;;6087408;23;20014;-45
2022/03/17 07:48:10;;;;;;;12.15;3.40;;;;;;;;;;6089374;23;20018;-43
2022/03/17 07:50:35;;;;;;;13.30;4.35;;;;;;;;;;6090474;23;20026;-44
2022/03/17 07:53:00;;;;;;;11.48;4.25;;;;;;;;;;6089838;23;20010;-45
2022/03/17 07:55:27;;;;;;;25.23;4.63;;;;;;;;;;6090891;23;20097;-46
2022/03/17 07:57:52;;;;;;;17.52;5.82;;;;;;;;;;6087815;23;20022;-44
2022/03/17 08:00:17;;;;;;;14.57;6.35;;;;;;;;;;6091083;23;20014;-43
2022/03/17 08:02:42;;;;;;;21.58;5.38;;;;;;;;;;6090702;23;20023;-43
2022/03/17 08:05:12;;;;;;;16.30;5.57;;;;;;;;;;6089710;23;20022;-44
2022/03/17 08:07:37;;;;;;;21.90;5.70;;;;;;;;;;6090316;23;20352;-44
2022/03/17 08:10:03;;;;;;;11.20;5.18;;;;;;;;;;6095523;23;20019;-44
2022/03/17 08:12:30;;;;;;;12.25;5.38;;;;;;;;;;6091516;23;20018;-44
2022/03/17 08:14:55;;;;;;;9.80;4.68;;;;;;;;;;6088694;23;20010;-44
2022/03/17 08:17:21;;;;;;;19.60;5.80;;;;;;;;;;6091523;23;20070;-44
2022/03/17 08:19:46;;;;;;;16.17;6.13;;;;;;;;;;6091004;23;20015;-44
2022/03/17 08:22:11;;;;;;;22.60;6.78;;;;;;;;;;6081779;23;20026;-44
2022/03/17 08:24:37;;;;;;;20.05;6.95;;;;;;;;;;6085887;23;20046;-46
2022/03/17 08:27:03;;;;;;;22.17;8.23;;;;;;;;;;6086371;23;20061;-46
2022/03/17 08:29:29;;;;;;;16.38;6.40;;;;;;;;;;6088245;23;20018;-43
2022/03/17 08:31:54;;;;;;;29.65;7.63;;;;;;;;;;6089128;23;20013;-45
2022/03/17 08:34:20;;;;;;;18.20;7.93;;;;;;;;;;6082145;23;20807;-44
2022/03/17 08:36:45;;;;;;;25.88;7.05;;;;;;;;;;6086527;23;20458;-43
2022/03/17 08:39:10;;;;;;;20.08;7.10;;;;;;;;;;6076719;23;20947;-43
2022/03/17 08:41:35;;;;;;;19.77;7.55;;;;;;;;;;6063195;23;20022;-44
2022/03/17 08:44:01;;;;;;;19.65;7.05;;;;;;;;;;6067742;23;20007;-45
2022/03/17 08:49:19;;;;;;;16.27;6.25;;;;;;;;;;6077940;23;20831;-43
2022/03/17 08:51:45;;;;;;;27.50;7.63;;;;;;;;;;6086792;23;20305;-45
2022/03/17 08:54:11;;;;;;;16.52;5.78;;;;;;;;;;6079482;23;20014;-44
2022/03/17 08:56:36;;;;;;;29.05;8.68;;;;;;;;;;6091050;23;20006;-45
2022/03/17 08:59:03;;;;;;;21.40;5.80;;;;;;;;;;6092369;23;20014;-44
2022/03/17 09:01:28;;;;;;;16.75;5.60;;;;;;;;;;6090578;23;20030;-43
2022/03/17 09:03:53;;;;;;;24.42;6.55;;;;;;;;;;6092234;23;20557;-45
2022/03/17 09:06:19;;;;;;;16.67;6.35;;;;;;;;;;6094010;23;20034;-45
2022/03/17 09:08:45;;;;;;;19.55;5.72;;;;;;;;;;6091232;23;20022;-44
2022/03/17 09:11:14;;;;;;;27.20;6.72;;;;;;;;;;6091219;23;20062;-44
2022/03/17 09:13:40;;;;;;;17.23;5.43;;;;;;;;;;6089535;23;20025;-45
2022/03/17 09:16:06;;;;;;;24.40;6.57;;;;;;;;;;6092726;23;20007;-45
2022/03/17 09:18:32;;;;;;;22.40;5.53;;;;;;;;;;6093019;23;20045;-45
2022/03/17 09:20:59;;;;;;;19.50;5.25;;;;;;;;;;6093140;23;20030;-44
2022/03/17 09:23:24;;;;;;;15.45;4.63;;;;;;;;;;6093619;23;20030;-43
2022/03/17 09:25:50;;;;;;;14.55;4.65;;;;;;;;;;6095120;23;20511;-43
2022/03/17 09:28:15;;;;;;;18.80;4.18;;;;;;;;;;6089888;23;20039;-45
2022/03/17 09:30:40;;;;;;;12.68;5.28;;;;;;;;;;6089705;23;20021;-44
2022/03/17 09:33:06;;;;;;;14.23;3.70;;;;;;;;;;6091565;23;20018;-46
2022/03/17 09:35:34;;;;;;;21.10;7.45;;;;;;;;;;6091703;23;20029;-44
2022/03/17 09:37:59;;;;;;;14.10;4.70;;;;;;;;;;6094307;23;20167;-44
2022/03/17 09:40:25;;;;;;;23.85;5.28;;;;;;;;;;6091181;23;20018;-44
2022/03/17 09:43:18;;;;;;;14.13;4.70;;;;;;;;;;6091599;23;20026;-43
2022/03/17 09:45:35;;;;;;;10.15;3.60;;;;;;;;;;6091289;23;20077;-44
2022/03/17 09:48:00;;;;;;;9.45;3.30;;;;;;;;;;6094539;23;20014;-44
2022/03/17 09:50:27;;;;;;;12.02;3.22;;;;;;;;;;6090073;23;20789;-49
2022/03/17 09:52:52;;;;;;;6.78;2.47;;;;;;;;;;6094985;23;20010;-45
2022/03/17 09:55:17;;;;;;;7.60;3.13;;;;;;;;;;6091727;23;20049;-43
2022/03/17 09:57:43;;;;;;;11.32;2.75;;;;;;;;;;6091991;23;20089;-45
2022/03/17 10:00:11;;;;;;;12.43;3.75;;;;;;;;;;6094903;23;20359;-45
2022/03/17 10:02:37;;;;;;;16.27;2.65;;;;;;;;;;6094981;23;20019;-43
2022/03/17 10:05:02;;;;;;;6.60;2.50;;;;;;;;;;6090874;23;20025;-45
2022/03/17 10:07:28;;;;;;;6.35;2.60;;;;;;;;;;6083789;23;20634;-43
2022/03/17 10:09:53;;;;;;;7.63;2.08;;;;;;;;;;6089872;23;20384;-44
2022/03/17 10:12:22;;;;;;;11.57;3.60;;;;;;;;;;6091955;23;20047;-44
2022/03/17 10:14:48;;;;;;;12.63;3.90;;;;;;;;;;6092456;23;20018;-45
2022/03/17 10:17:28;;;;;;;9.38;2.08;;;;;;;;;;6093588;23;20014;-44
2022/03/17 10:20:09;;;;;;;6.38;1.85;;;;;;;;;;6093414;23;20018;-46
2022/03/17 10:22:39;;;;;;;5.00;2.28;;;;;;;;;;6093947;23;20026;-45
2022/03/17 10:25:04;;;;;;;;;;;;;;;;;;6090909;23;20019;-44
2022/03/17 10:27:40;;;;;;;10.68;2.05;;;;;;;;;;6092967;23;19915;-43
2022/03/17 10:30:06;;;;;;;5.95;1.95;;;;;;;;;;6093795;23;20046;-44
2022/03/17 10:32:32;;;;;;;7.72;1.48;;;;;;;;;;6094901;23;20299;-43
2022/03/17 10:34:57;;;;;;;4.50;1.73;;;;;;;;;;6095233;23;20022;-43
2022/03/17 10:37:23;;;;;;;11.07;1.88;;;;;;;;;;6093355;23;20011;-44
2022/03/17 10:39:50;;;;;;;6.03;1.90;;;;;;;;;;6092443;23;20017;-44
2022/03/17 10:42:16;;;;;;;7.22;2.72;;;;;;;;;;6114616;23;20030;-43
2022/03/17 10:44:45;;;;;;;9.15;2.45;;;;;;;;;;6095083;23;20347;-45
2022/03/17 10:47:10;;;;;;;10.63;1.57;;;;;;;;;;6088466;23;20377;-43
2022/03/17 10:49:36;;;;;;;10.73;1.73;;;;;;;;;;6089562;23;20014;-44
2022/03/17 10:52:02;;;;;;;5.93;1.17;;;;;;;;;;6095117;23;20026;-41
2022/03/17 10:54:28;;;;;;;5.53;2.17;;;;;;;;;;6088444;23;20057;-44
2022/03/17 10:57:05;;;;;;;5.90;1.80;;;;;;;;;;6093273;23;20011;-42
2022/03/17 10:59:44;;;;;;;6.28;1.73;;;;;;;;;;6093537;23;20019;-43
2022/03/17 11:02:17;;;;;;;16.77;1.73;;;;;;;;;;6093591;23;20062;-43
2022/03/17 11:04:44;;;;;;;12.43;1.63;;;;;;;;;;6090052;23;20262;-43
2022/03/17 11:07:13;;;;;;;9.38;1.55;;;;;;;;;;6090482;23;20011;-42
2022/03/17 11:09:39;;;;;;;12.55;2.72;;;;;;;;;;6085418;23;20026;-42
2022/03/17 11:12:05;;;;;;;10.80;1.52;;;;;;;;;;6090370;23;20011;-42
2022/03/17 11:14:31;;;;;;;7.40;1.65;;;;;;;;;;6085071;23;20006;-41
2022/03/17 11:16:58;;;;;;;5.18;1.63;;;;;;;;;;6094457;23;20017;-41
2022/03/17 11:19:24;;;;;;;3.88;1.02;;;;;;;;;;6091792;23;20030;-41
2022/03/17 11:22:05;;;;;;;5.13;1.45;;;;;;;;;;6116389;23;20648;-43
2022/03/17 11:24:30;;;;;;;6.30;1.52;;;;;;;;;;6090891;23;20018;-41
2022/03/17 11:27:05;;;;;;;1.67;1.10;;;;;;;;;;6094048;23;20034;-43
2022/03/17 11:29:37;;;;;;;2.03;1.17;;;;;;;;;;6095693;23;20085;-42
2022/03/17 11:32:05;;;;;;;3.08;1.20;;;;;;;;;;6094212;23;20018;-44
2022/03/17 11:34:37;;;;;;;4.75;0.98;;;;;;;;;;6091231;23;20258;-41
2022/03/17 11:37:15;;;;;;;2.38;1.00;;;;;;;;;;6089309;23;20014;-44
2022/03/17 11:39:59;;;;;;;2.92;0.75;;;;;;;;;;6092292;23;20010;-43
2022/03/17 11:42:28;;;;;;;12.40;3.10;;;;;;;;;;6088357;23;20026;-43
2022/03/17 11:45:00;;;;;;;4.97;1.03;;;;;;;;;;6095808;23;20067;-43
2022/03/17 11:47:28;;;;;;;10.43;1.15;;;;;;;;;;6091530;23;20022;-43
2022/03/17 11:49:54;;;;;;;6.03;1.73;;;;;;;;;;6094918;23;20046;-45
2022/03/17 11:52:19;;;;;;;2.25;1.90;;;;;;;;;;6091899;23;20022;-42
2022/03/17 11:54:44;;;;;;;1.98;1.17;;;;;;;;;;6092861;23;20042;-44
2022/03/17 11:57:10;;;;;;;2.30;0.63;;;;;;;;;;6092954;23;20041;-44
2022/03/17 11:59:50;;;;;;;4.90;0.85;;;;;;;;;;6087285;23;20018;-43
2022/03/17 12:02:16;;;;;;;0.65;0.63;;;;;;;;;;6087944;23;20030;-44
2022/03/17 12:04:51;;;;;;;1.48;0.60;;;;;;;;;;6089934;23;20025;-44
2022/03/17 12:07:18;;;;;;;2.47;0.60;;;;;;;;;;6092071;23;20074;-42
2022/03/17 12:09:43;;;;;;;2.00;0.57;;;;;;;;;;6095093;23;20006;-45
2022/03/17 12:12:17;;;;;;;4.03;1.20;;;;;;;;;;6093543;23;20018;-44
2022/03/17 12:15:10;;;;;;;3.03;0.77;;;;;;;;;;6088752;23;20063;-45
2022/03/17 12:17:35;;;;;;;3.22;0.52;;;;;;;;;;6088355;23;20014;-45
2022/03/17 12:20:11;;;;;;;5.03;0.90;;;;;;;;;;6094549;23;20061;-43
2022/03/17 12:22:42;;;;;;;3.55;0.50;;;;;;;;;;6090909;23;20014;-44
2022/03/17 12:25:15;;;;;;;1.55;0.75;;;;;;;;;;6090292;23;20020;-45
2022/03/17 12:27:43;;;;;;;6.80;0.80;;;;;;;;;;6090880;23;20050;-44
2022/03/17 12:30:13;;;;;;;1.85;0.68;;;;;;;;;;6092723;23;20014;-43
2022/03/17 12:32:39;;;;;;;;;;;;;;;;;;6092086;23;20034;-44
2022/03/17 12:35:05;;;;;;;1.83;0.80;;;;;;;;;;6095279;23;20352;-42
2022/03/17 12:37:31;;;;;;;3.72;0.82;;;;;;;;;;6089821;23;20029;-42
2022/03/17 12:39:58;;;;;;;2.15;0.88;;;;;;;;;;6094634;23;20003;-43
2022/03/17 12:42:28;;;;;;;1.20;0.55;;;;;;;;;;6087967;23;20027;-44
2022/03/17 12:44:55;;;;;;;1.67;0.63;;;;;;;;;;6093868;23;20070;-44
2022/03/17 12:47:21;;;;;;;2.40;1.80;;;;;;;;;;6092617;23;20023;-45
2022/03/17 12:49:49;;;;;;;2.00;0.73;;;;;;;;;;6094270;23;20030;-44
2022/03/17 12:52:18;;;;;;;1.23;0.68;;;;;;;;;;6092518;23;20026;-43
2022/03/17 12:54:43;;;;;;;3.97;1.05;;;;;;;;;;6094321;23;20010;-45
2022/03/17 12:57:09;;;;;;;1.42;0.45;;;;;;;;;;6092897;23;20039;-44
2022/03/17 12:59:34;;;;;;;2.35;0.68;;;;;;;;;;6092550;23;20003;-44
2022/03/17 13:02:00;;;;;;;2.35;0.50;;;;;;;;;;6095010;23;20026;-44
2022/03/17 13:04:26;;;;;;;1.08;0.60;;;;;;;;;;6093282;23;20070;-44
2022/03/17 13:06:54;;;;;;;1.85;0.73;;;;;;;;;;6092629;23;20038;-45
2022/03/17 13:09:30;;;;;;;1.48;0.47;;;;;;;;;;6090263;23;20087;-43
2022/03/17 13:14:51;;;;;;;1.30;0.68;;;;;;;;;;6050491;23;20396;-45
2022/03/17 13:17:36;;;;;;;0.98;0.80;;;;;;;;;;6093642;23;20093;-44
2022/03/17 13:20:08;;;;;;;4.53;0.73;;;;;;;;;;6092922;23;20021;-43
2022/03/17 13:22:34;;;;;;;2.00;1.20;;;;;;;;;;6092578;23;20018;-45
2022/03/17 13:25:07;;;;;;;2.22;0.57;;;;;;;;;;6092214;23;20010;-45
2022/03/17 13:27:34;;;;;;;0.77;0.70;;;;;;;;;;6086530;23;20014;-45
2022/03/17 13:30:02;;;;;;;2.88;0.50;;;;;;;;;;6088062;23;20014;-46
2022/03/17 13:32:28;;;;;;;2.58;0.40;;;;;;;;;;6083691;23;20483;-44
2022/03/17 13:35:00;;;;;;;1.95;0.20;;;;;;;;;;6091302;23;20066;-44
2022/03/17 13:37:32;;;;;;;3.25;0.65;;;;;;;;;;6091495;23;20021;-45
2022/03/17 13:40:02;;;;;;;3.78;0.65;;;;;;;;;;6090069;23;20022;-44
2022/03/17 13:42:28;;;;;;;7.20;0.90;;;;;;;;;;6091084;23;20018;-45
2022/03/17 13:44:55;;;;;;;1.77;0.68;;;;;;;;;;6091822;23;20058;-44
2022/03/17 13:47:25;;;;;;;1.13;0.50;;;;;;;;;;6089775;23;20025;-46
2022/03/17 13:50:10;;;;;;;9.25;0.55;;;;;;;;;;6089751;23;20014;-44
2022/03/17 13:52:35;;;;;;;1.23;0.80;;;;;;;;;;6092908;23;20823;-45
2022/03/17 13:55:01;;;;;;;2.63;0.73;;;;;;;;;;6092693;23;20022;-44
2022/03/17 13:57:26;;;;;;;6.70;0.95;;;;;;;;;;6094744;23;20041;-46
2022/03/17 13:59:51;;;;;;;1.67;0.52;;;;;;;;;;6095538;23;20073;-46
2022/03/17 14:02:21;;;;;;;1.80;0.35;;;;;;;;;;6095358;23;20495;-46
2022/03/17 14:04:53;;;;;;;4.80;0.90;;;;;;;;;;6093292;23;20058;-52
2022/03/17 14:07:19;;;;;;;3.17;0.77;;;;;;;;;;6094443;23;20054;-47
2022/03/17 14:09:45;;;;;;;3.25;0.50;;;;;;;;;;6097416;23;20018;-47
2022/03/17 14:12:10;;;;;;;1.77;0.52;;;;;;;;;;6095285;23;20014;-45
2022/03/17 14:14:36;;;;;;;2.60;1.08;;;;;;;;;;6096298;23;20034;-44
2022/03/17 14:17:01;;;;;;;4.03;0.70;;;;;;;;;;6094738;23;20018;-45
2022/03/17 14:19:27;;;;;;;0.90;0.50;;;;;;;;;;6096702;23;20026;-45
2022/03/17 14:24:38;;;;;;;4.97;1.80;;;;;;;;;;6093445;23;20018;-46
2022/03/17 14:27:03;;;;;;;4.03;0.98;;;;;;;;;;6094790;23;20014;-46
2022/03/17 14:29:29;;;;;;;4.05;1.13;;;;;;;;;;6095187;23;20038;-45
2022/03/17 14:31:54;;;;;;;2.95;0.60;;;;;;;;;;6117506;23;20026;-48
2022/03/17 14:34:22;;;;;;;2.40;0.50;;;;;;;;;;6091904;23;20042;-46
2022/03/17 14:36:47;;;;;;;1.77;0.75;;;;;;;;;;6096665;23;20024;-45
2022/03/17 14:39:13;;;;;;;3.75;0.90;;;;;;;;;;6093469;23;20450;-49
2022/03/17 14:41:39;;;;;;;6.13;0.90;;;;;;;;;;6096114;23;20073;-45
2022/03/17 14:44:05;;;;;;;3.53;0.95;;;;;;;;;;6094283;23;20190;-46
2022/03/17 14:46:30;;;;;;;4.18;1.08;;;;;;;;;;6095450;23;20026;-44
2022/03/17 14:49:02;;;;;;;3.60;0.68;;;;;;;;;;6093943;23;20403;-44
2022/03/17 14:51:28;;;;;;;7.50;1.38;;;;;;;;;;6094834;23;20033;-44
2022/03/17 14:53:53;;;;;;;5.28;0.75;;;;;;;;;;6093282;23;20621;-46